Terminal Aerodrome Forecast
Issued by NWS Grand Forks, ND

Home | Current Version | Previous Version | Text Only | Print | Product List | Glossary Off
Versions: 1 2 3 4 5 6 7 8 9 10 11 12 13 14 15 16

000
FTUS43 KFGF 231136
TAFFAR
TAF
KFAR 231136Z 2312/2412 16012KT P6SM BKN120
     FM231400 16013G22KT P6SM VCTS BKN080CB
     FM231800 18016G25KT P6SM SCT100
     FM232200 21016KT P6SM SCT090
     FM240000 23012KT P6SM BKN090
     FM240200 27009KT P6SM BKN090
     FM240400 28006KT P6SM SCT090=

USA.gov is the U.S. government's official web portal to all federal, state and local government web resources and services.